地図

経路データ

SID SEASON NUMBER BASIN SUBBASIN NAME ISO_TIME NATURE LAT LON WMO_WIND WMO_PRES WMO_AGENCY TRACK_TYPE DIST2LAND LANDFALL IFLAG USA_AGENCY USA_ATCF_ID USA_LAT USA_LON USA_RECORD USA_STATUS USA_WIND USA_PRES USA_SSHS USA_R34_NE USA_R34_SE USA_R34_SW USA_R34_NW USA_R50_NE USA_R50_SE USA_R50_SW USA_R50_NW USA_R64_NE USA_R64_SE USA_R64_SW USA_R64_NW USA_POCI USA_ROCI USA_RMW USA_EYE TOKYO_LAT TOKYO_LON TOKYO_GRADE TOKYO_WIND TOKYO_PRES TOKYO_R50_DIR TOKYO_R50_LONG TOKYO_R50_SHORT TOKYO_R30_DIR TOKYO_R30_LONG TOKYO_R30_SHORT TOKYO_LAND CMA_LAT CMA_LON CMA_CAT CMA_WIND CMA_PRES HKO_LAT HKO_LON HKO_CAT HKO_WIND HKO_PRES NEWDELHI_LAT NEWDELHI_LON NEWDELHI_GRADE NEWDELHI_WIND NEWDELHI_PRES NEWDELHI_CI NEWDELHI_DP NEWDELHI_POCI REUNION_LAT REUNION_LON REUNION_TYPE REUNION_WIND REUNION_PRES REUNION_TNUM REUNION_CI REUNION_RMW REUNION_R34_NE REUNION_R34_SE REUNION_R34_SW REUNION_R34_NW REUNION_R50_NE REUNION_R50_SE REUNION_R50_SW REUNION_R50_NW REUNION_R64_NE REUNION_R64_SE REUNION_R64_SW REUNION_R64_NW BOM_LAT BOM_LON BOM_TYPE BOM_WIND BOM_PRES BOM_TNUM BOM_CI BOM_RMW BOM_R34_NE BOM_R34_SE BOM_R34_SW BOM_R34_NW BOM_R50_NE BOM_R50_SE BOM_R50_SW BOM_R50_NW BOM_R64_NE BOM_R64_SE BOM_R64_SW BOM_R64_NW BOM_ROCI BOM_POCI BOM_EYE BOM_POS_METHOD BOM_PRES_METHOD NADI_LAT NADI_LON NADI_CAT NADI_WIND NADI_PRES WELLINGTON_LAT WELLINGTON_LON WELLINGTON_WIND WELLINGTON_PRES DS824_LAT DS824_LON DS824_STAGE DS824_WIND DS824_PRES TD9636_LAT TD9636_LON TD9636_STAGE TD9636_WIND TD9636_PRES TD9635_LAT TD9635_LON TD9635_WIND TD9635_PRES TD9635_ROCI NEUMANN_LAT NEUMANN_LON NEUMANN_CLASS NEUMANN_WIND NEUMANN_PRES MLC_LAT MLC_LON MLC_CLASS MLC_WIND MLC_PRES USA_GUST BOM_GUST BOM_GUST_PER REUNION_GUST REUNION_GUST_PER USA_SEAHGT USA_SEARAD_NE USA_SEARAD_SE USA_SEARAD_SW USA_SEARAD_NW STORM_SPEED STORM_DIR
1899232N18130 1899 26 WP MM NOT_NAMED 1899-08-19 16:00:00 NR 18.3000 130.300 main 799 765 __________O___ -1 18.3000 130.300 7 15 284
1899232N18130 1899 26 WP MM NOT_NAMED 1899-08-19 18:00:00 NR 18.4266 129.778 main 765 706 __________P___ -1 18.4266 129.778 7 15 284
1899232N18130 1899 26 WP MM NOT_NAMED 1899-08-19 21:00:00 NR 18.6113 129.009 main 706 633 __________P___ -1 18.6113 129.009 7 15 284
1899232N18130 1899 26 WP MM NOT_NAMED 1899-08-20 00:00:00 NR 18.7866 128.277 main 633 561 __________P___ -1 18.7866 128.277 7 14 284
1899232N18130 1899 26 WP MM NOT_NAMED 1899-08-20 03:00:00 NR 18.9491 127.606 main 561 541 __________P___ -1 18.9491 127.606 7 13 284
1899232N18130 1899 26 WP MM NOT_NAMED 1899-08-20 04:00:00 NR 19.0000 127.400 main 541 501 __________O___ -1 19.0000 127.400 7 12 285
1899232N18130 1899 26 WP MM NOT_NAMED 1899-08-20 06:00:00 NR 19.0969 127.018 main 501 451 __________P___ -1 19.0969 127.018 7 11 286
1899232N18130 1899 26 WP MM NOT_NAMED 1899-08-20 09:00:00 NR 19.2365 126.508 main 451 415 __________P___ -1 19.2365 126.508 7 10 287
1899232N18130 1899 26 WP MM NOT_NAMED 1899-08-20 12:00:00 NR 19.3805 126.054 main 415 368 __________P___ -1 19.3805 126.054 7 9 290
1899232N18130 1899 26 WP MM NOT_NAMED 1899-08-20 15:00:00 NR 19.5408 125.636 main 368 362 __________P___ -1 19.5408 125.636 7 9 293
1899232N18130 1899 26 WP MM NOT_NAMED 1899-08-20 16:00:00 NR 19.6000 125.500 main 362 337 __________O___ -1 19.6000 125.500 7 8 296
1899232N18130 1899 26 WP MM NOT_NAMED 1899-08-20 18:00:00 NR 19.7217 125.234 main 337 320 __________P___ -1 19.7217 125.234 7 8 298
1899232N18130 1899 26 WP MM NOT_NAMED 1899-08-20 21:00:00 NR 19.9232 124.854 main 320 299 __________P___ -1 19.9232 124.854 7 8 301
1899232N18130 1899 26 WP MM NOT_NAMED 1899-08-21 00:00:00 NR 20.1508 124.471 main 306 290 __________P___ -1 20.1508 124.471 7 9 303
1899232N18130 1899 26 WP MM NOT_NAMED 1899-08-21 03:00:00 NR 20.4074 124.053 main 292 286 __________P___ -1 20.4074 124.053 7 10 303
1899232N18130 1899 26 WP MM NOT_NAMED 1899-08-21 04:00:00 NR 20.5000 123.900 main 288 282 __________O___ -1 20.5000 123.900 3 11 302
1899232N18130 1899 26 WP MM NOT_NAMED 1899-08-21 06:00:00 NR 20.6964 123.565 main 291 239 __________P___ -1 20.6964 123.565 3 12 302
1899232N18130 1899 26 WP MM NOT_NAMED 1899-08-21 09:00:00 NR 21.0162 123.017 main 239 164 __________P___ -1 21.0162 123.017 3 12 302
1899232N18130 1899 26 WP MM NOT_NAMED 1899-08-21 12:00:00 NR 21.3525 122.428 main 164 95 __________P___ -1 21.3525 122.428 3 13 301
1899232N18130 1899 26 WP MM NOT_NAMED 1899-08-21 15:00:00 NR 21.6899 121.810 main 95 73 __________P___ -1 21.6899 121.810 3 13 300
1899232N18130 1899 26 WP MM NOT_NAMED 1899-08-21 16:00:00 NR 21.8000 121.600 main 73 30 __________O___ -1 21.8000 121.600 4 14 300
1899232N18130 1899 26 WP MM NOT_NAMED 1899-08-21 18:00:00 NR 22.0240 121.176 main 30 0 __________P___ -1 22.0240 121.176 4 14 299
1899232N18130 1899 26 WP MM NOT_NAMED 1899-08-21 21:00:00 NR 22.3542 120.521 main 0 0 __________P___ -1 22.3542 120.521 4 14 298
1899232N18130 1899 26 WP MM NOT_NAMED 1899-08-22 00:00:00 NR 22.6607 119.860 main 32 42 __________P___ -1 22.6607 119.860 4 13 295
1899232N18130 1899 26 WP MM NOT_NAMED 1899-08-22 03:00:00 NR 22.9247 119.211 main 94 94 __________P___ -1 22.9247 119.211 4 13 293
1899232N18130 1899 26 WP MM NOT_NAMED 1899-08-22 04:00:00 NR 23.0000 119.000 main 113 113 __________O___ -1 23.0000 119.000 4 12 289
1899232N18130 1899 26 WP MM NOT_NAMED 1899-08-22 06:00:00 NR 23.1224 118.601 main 121 60 __________P___ -1 23.1224 118.601 4 11 286
1899232N18130 1899 26 WP MM NOT_NAMED 1899-08-22 09:00:00 NR 23.2626 118.022 main 60 33 __________P___ -1 23.2626 118.022 4 11 283
1899232N18130 1899 26 WP MM NOT_NAMED 1899-08-22 12:00:00 NR 23.3700 117.457 main 35 10 __________P___ -1 23.3700 117.457 4 11 281
1899232N18130 1899 26 WP MM NOT_NAMED 1899-08-22 15:00:00 NR 23.4665 116.891 main 10 0 __________P___ -1 23.4665 116.891 4 11 281
1899232N18130 1899 26 WP MM NOT_NAMED 1899-08-22 16:00:00 NR 23.5000 116.700 main 0 0 __________O___ -1 23.5000 116.700 4 11 283
1899232N18130 1899 26 WP MM NOT_NAMED 1899-08-22 18:00:00 NR 23.5885 116.293 main 0 0 __________P___ -1 23.5885 116.293 4 12 283
1899232N18130 1899 26 WP MM NOT_NAMED 1899-08-22 21:00:00 NR 23.7216 115.675 main 0 0 __________P___ -1 23.7216 115.675 4 12 283
1899232N18130 1899 26 WP MM NOT_NAMED 1899-08-23 00:00:00 NR 23.8492 115.066 main 0 0 __________P___ -1 23.8492 115.066 4 11 283
1899232N18130 1899 26 WP MM NOT_NAMED 1899-08-23 03:00:00 NR 23.9650 114.485 main 0 0 __________P___ -1 23.9650 114.485 4 11 282
1899232N18130 1899 26 WP MM NOT_NAMED 1899-08-23 04:00:00 NR 24.0000 114.300 main 0 0 __________O___ -1 24.0000 114.300 4 10 282
1899232N18130 1899 26 WP MM NOT_NAMED 1899-08-23 06:00:00 NR 24.0631 113.960 main 0 0 __________P___ -1 24.0631 113.960 4 9 281
1899232N18130 1899 26 WP MM NOT_NAMED 1899-08-23 09:00:00 NR 24.1459 113.481 main 0 0 __________P___ -1 24.1459 113.481 4 9 280
1899232N18130 1899 26 WP MM NOT_NAMED 1899-08-23 12:00:00 NR 24.2174 113.022 main 0 0 __________P___ -1 24.2174 113.022 4 9 279
1899232N18130 1899 26 WP MM NOT_NAMED 1899-08-23 15:00:00 NR 24.2804 112.559 main 0 0 __________P___ -1 24.2804 112.559 4 9 278
1899232N18130 1899 26 WP MM NOT_NAMED 1899-08-23 16:00:00 NR 24.3000 112.400 main 0 0 __________O___ -1 24.3000 112.400 4 9 277
1899232N18130 1899 26 WP MM NOT_NAMED 1899-08-23 18:00:00 NR 24.3376 112.072 main 0 0 __________P___ -1 24.3376 112.072 4 9 277
1899232N18130 1899 26 WP MM NOT_NAMED 1899-08-23 21:00:00 NR 24.3904 111.559 main 0 0 __________P___ -1 24.3904 111.559 4 10 276
1899232N18130 1899 26 WP MM NOT_NAMED 1899-08-24 00:00:00 NR 24.4394 111.026 main 0 0 __________P___ -1 24.4394 111.026 4 10 276
1899232N18130 1899 26 WP MM NOT_NAMED 1899-08-24 03:00:00 NR 24.4853 110.482 main 0 0 __________P___ -1 24.4853 110.482 4 10 275
1899232N18130 1899 26 WP MM NOT_NAMED 1899-08-24 04:00:00 NR 24.5000 110.300 main 0 __________O___ -1 24.5000 110.300 7 10 275

デジタル台風データ・検索

IBTrACS Databaseについて

本データベースは、米国NOAAが公開する1842年以降の世界の熱帯低気圧のベストトラックデータアーカイブInternational Best Track Archive for Climate Stewardship (IBTrACS)を、ウェブで閲覧しやすい形式に変換したものです。

最終更新日:2021-10-21